sensor_id;sensor_type;location;lat;lon;timestamp;P1;durP1;ratioP1;P2;durP2;ratioP2
69795;SDS011;57073;45.650;9.612;2023-04-01T00:02:29;5.00;;;2.30;;
69795;SDS011;57073;45.650;9.612;2023-04-01T00:07:30;4.57;;;2.30;;
69795;SDS011;57073;45.650;9.612;2023-04-01T00:12:30;4.10;;;2.57;;
69795;SDS011;57073;45.650;9.612;2023-04-01T00:17:31;3.80;;;2.40;;
69795;SDS011;57073;45.650;9.612;2023-04-01T00:22:32;4.23;;;2.60;;
69795;SDS011;57073;45.650;9.612;2023-04-01T00:27:33;4.00;;;2.38;;
69795;SDS011;57073;45.650;9.612;2023-04-01T00:32:33;5.53;;;3.20;;
69795;SDS011;57073;45.650;9.612;2023-04-01T00:37:35;4.93;;;3.37;;
69795;SDS011;57073;45.650;9.612;2023-04-01T00:42:36;4.65;;;2.92;;
69795;SDS011;57073;45.650;9.612;2023-04-01T00:47:37;4.43;;;3.23;;
69795;SDS011;57073;45.650;9.612;2023-04-01T00:52:37;4.93;;;3.03;;
69795;SDS011;57073;45.650;9.612;2023-04-01T00:57:38;4.50;;;3.20;;
69795;SDS011;57073;45.650;9.612;2023-04-01T01:02:41;4.93;;;2.92;;
69795;SDS011;57073;45.650;9.612;2023-04-01T01:07:51;6.80;;;2.77;;
69795;SDS011;57073;45.650;9.612;2023-04-01T01:18:47;4.73;;;2.53;;
69795;SDS011;57073;45.650;9.612;2023-04-01T01:34:54;3.30;;;1.80;;
69795;SDS011;57073;45.650;9.612;2023-04-01T01:40:08;2.95;;;1.50;;
69795;SDS011;57073;45.650;9.612;2023-04-01T01:45:11;2.60;;;1.50;;
69795;SDS011;57073;45.650;9.612;2023-04-01T01:50:18;3.05;;;1.65;;
69795;SDS011;57073;45.650;9.612;2023-04-01T01:55:23;2.58;;;1.60;;
69795;SDS011;57073;45.650;9.612;2023-04-01T02:00:27;3.27;;;1.60;;
69795;SDS011;57073;45.650;9.612;2023-04-01T02:05:28;2.78;;;1.30;;
69795;SDS011;57073;45.650;9.612;2023-04-01T02:10:31;2.20;;;1.40;;
69795;SDS011;57073;45.650;9.612;2023-04-01T02:15:37;3.17;;;1.50;;
69795;SDS011;57073;45.650;9.612;2023-04-01T02:20:42;3.20;;;1.40;;
69795;SDS011;57073;45.650;9.612;2023-04-01T02:25:44;2.50;;;1.53;;
69795;SDS011;57073;45.650;9.612;2023-04-01T02:30:46;2.75;;;1.70;;
69795;SDS011;57073;45.650;9.612;2023-04-01T02:35:49;2.63;;;1.50;;
69795;SDS011;57073;45.650;9.612;2023-04-01T02:40:51;4.60;;;1.63;;
69795;SDS011;57073;45.650;9.612;2023-04-01T02:45:57;3.75;;;2.10;;
69795;SDS011;57073;45.650;9.612;2023-04-01T02:50:58;4.63;;;1.90;;
69795;SDS011;57073;45.650;9.612;2023-04-01T02:55:58;3.93;;;2.07;;
69795;SDS011;57073;45.650;9.612;2023-04-01T03:00:58;3.17;;;1.80;;
69795;SDS011;57073;45.650;9.612;2023-04-01T03:06:04;2.93;;;1.67;;
69795;SDS011;57073;45.650;9.612;2023-04-01T03:11:09;3.30;;;1.50;;
69795;SDS011;57073;45.650;9.612;2023-04-01T03:16:10;3.53;;;1.70;;
69795;SDS011;57073;45.650;9.612;2023-04-01T03:21:14;2.53;;;1.60;;
69795;SDS011;57073;45.650;9.612;2023-04-01T03:26:19;2.70;;;1.67;;
69795;SDS011;57073;45.650;9.612;2023-04-01T03:31:19;3.88;;;1.55;;
69795;SDS011;57073;45.650;9.612;2023-04-01T03:36:20;2.57;;;1.30;;
69795;SDS011;57073;45.650;9.612;2023-04-01T03:41:20;2.73;;;1.60;;
69795;SDS011;57073;45.650;9.612;2023-04-01T03:46:21;3.40;;;1.20;;
69795;SDS011;57073;45.650;9.612;2023-04-01T03:51:22;3.43;;;1.00;;
69795;SDS011;57073;45.650;9.612;2023-04-01T03:56:22;2.05;;;1.00;;
69795;SDS011;57073;45.650;9.612;2023-04-01T04:01:23;1.83;;;1.00;;
69795;SDS011;57073;45.650;9.612;2023-04-01T04:06:25;1.50;;;0.70;;
69795;SDS011;57073;45.650;9.612;2023-04-01T04:11:25;1.13;;;0.70;;
69795;SDS011;57073;45.650;9.612;2023-04-01T04:16:26;1.10;;;0.43;;
69795;SDS011;57073;45.650;9.612;2023-04-01T04:21:26;1.60;;;0.60;;
69795;SDS011;57073;45.650;9.612;2023-04-01T04:26:26;0.97;;;0.40;;
69795;SDS011;57073;45.650;9.612;2023-04-01T04:31:27;1.80;;;0.70;;
69795;SDS011;57073;45.650;9.612;2023-04-01T04:36:28;1.23;;;0.63;;
69795;SDS011;57073;45.650;9.612;2023-04-01T04:41:28;1.53;;;0.60;;
69795;SDS011;57073;45.650;9.612;2023-04-01T04:46:28;1.23;;;0.50;;
69795;SDS011;57073;45.650;9.612;2023-04-01T04:51:29;0.90;;;0.50;;
69795;SDS011;57073;45.650;9.612;2023-04-01T04:56:30;1.20;;;0.50;;
69795;SDS011;57073;45.650;9.612;2023-04-01T05:01:31;1.00;;;0.30;;
69795;SDS011;57073;45.650;9.612;2023-04-01T05:06:33;1.05;;;0.40;;
69795;SDS011;57073;45.650;9.612;2023-04-01T05:11:33;1.27;;;0.33;;
69795;SDS011;57073;45.650;9.612;2023-04-01T05:16:34;3.10;;;0.67;;
69795;SDS011;57073;45.650;9.612;2023-04-01T05:21:34;0.70;;;0.30;;
69795;SDS011;57073;45.650;9.612;2023-04-01T05:26:34;3.57;;;0.50;;
69795;SDS011;57073;45.650;9.612;2023-04-01T05:31:36;1.77;;;0.60;;
69795;SDS011;57073;45.650;9.612;2023-04-01T05:36:37;1.90;;;0.37;;
69795;SDS011;57073;45.650;9.612;2023-04-01T05:41:37;1.00;;;0.50;;
69795;SDS011;57073;45.650;9.612;2023-04-01T05:46:38;2.90;;;0.60;;
69795;SDS011;57073;45.650;9.612;2023-04-01T05:51:38;0.93;;;0.50;;
69795;SDS011;57073;45.650;9.612;2023-04-01T05:56:39;1.20;;;0.40;;
69795;SDS011;57073;45.650;9.612;2023-04-01T06:01:39;1.40;;;0.60;;
69795;SDS011;57073;45.650;9.612;2023-04-01T06:06:40;1.13;;;0.30;;
69795;SDS011;57073;45.650;9.612;2023-04-01T06:59:39;1.90;;;0.60;;
69795;SDS011;57073;45.650;9.612;2023-04-01T07:04:43;1.17;;;0.50;;
69795;SDS011;57073;45.650;9.612;2023-04-01T07:09:49;1.93;;;0.90;;
69795;SDS011;57073;45.650;9.612;2023-04-01T07:14:53;2.13;;;0.85;;
69795;SDS011;57073;45.650;9.612;2023-04-01T07:19:57;1.92;;;1.30;;
69795;SDS011;57073;45.650;9.612;2023-04-01T07:25:14;3.00;;;1.30;;
69795;SDS011;57073;45.650;9.612;2023-04-01T07:30:19;2.15;;;1.38;;
69795;SDS011;57073;45.650;9.612;2023-04-01T07:35:33;1.42;;;1.00;;
69795;SDS011;57073;45.650;9.612;2023-04-01T07:51:47;6.90;;;1.17;;
69795;SDS011;57073;45.650;9.612;2023-04-01T08:02:34;2.55;;;1.00;;
69795;SDS011;57073;45.650;9.612;2023-04-01T08:29:44;6.37;;;1.40;;
69795;SDS011;57073;45.650;9.612;2023-04-01T08:34:54;3.23;;;1.03;;
69795;SDS011;57073;45.650;9.612;2023-04-01T09:23:40;3.03;;;0.80;;
69795;SDS011;57073;45.650;9.612;2023-04-01T09:50:42;2.40;;;1.70;;
69795;SDS011;57073;45.650;9.612;2023-04-01T10:22:17;4.60;;;2.53;;
69795;SDS011;57073;45.650;9.612;2023-04-01T10:44:03;1.67;;;0.60;;
69795;SDS011;57073;45.650;9.612;2023-04-01T10:49:16;1.58;;;0.70;;
69795;SDS011;57073;45.650;9.612;2023-04-01T11:04:57;5.05;;;0.70;;
69795;SDS011;57073;45.650;9.612;2023-04-01T11:21:18;12.63;;;1.35;;
69795;SDS011;57073;45.650;9.612;2023-04-01T11:31:47;0.50;;;0.20;;
69795;SDS011;57073;45.650;9.612;2023-04-01T11:37:41;0.77;;;0.30;;
69795;SDS011;57073;45.650;9.612;2023-04-01T11:42:38;2.63;;;0.40;;
69795;SDS011;57073;45.650;9.612;2023-04-01T11:47:52;0.70;;;0.20;;
69795;SDS011;57073;45.650;9.612;2023-04-01T12:09:04;0.30;;;0.13;;
69795;SDS011;57073;45.650;9.612;2023-04-01T12:14:11;1.10;;;0.20;;
69795;SDS011;57073;45.650;9.612;2023-04-01T12:19:59;1.05;;;0.13;;
69795;SDS011;57073;45.650;9.612;2023-04-01T12:24:45;1.30;;;0.10;;
69795;SDS011;57073;45.650;9.612;2023-04-01T12:56:02;0.22;;;0.10;;
69795;SDS011;57073;45.650;9.612;2023-04-01T13:12:02;1.42;;;0.10;;
69795;SDS011;57073;45.650;9.612;2023-04-01T13:17:28;0.30;;;0.00;;
69795;SDS011;57073;45.650;9.612;2023-04-01T13:23:01;1.23;;;0.00;;
69795;SDS011;57073;45.650;9.612;2023-04-01T13:28:32;0.38;;;0.00;;
69795;SDS011;57073;45.650;9.612;2023-04-01T13:34:13;0.50;;;0.10;;
69795;SDS011;57073;45.650;9.612;2023-04-01T13:39:23;0.20;;;0.00;;
69795;SDS011;57073;45.650;9.612;2023-04-01T13:49:55;1.08;;;0.00;;
69795;SDS011;57073;45.650;9.612;2023-04-01T14:00:46;1.00;;;0.05;;
69795;SDS011;57073;45.650;9.612;2023-04-01T14:16:55;0.40;;;0.13;;
69795;SDS011;57073;45.650;9.612;2023-04-01T14:32:39;0.10;;;0.00;;
69795;SDS011;57073;45.650;9.612;2023-04-01T14:48:30;0.40;;;0.10;;
69795;SDS011;57073;45.650;9.612;2023-04-01T14:53:35;1.75;;;0.10;;
69795;SDS011;57073;45.650;9.612;2023-04-01T14:58:49;0.60;;;0.10;;
69795;SDS011;57073;45.650;9.612;2023-04-01T15:35:38;1.17;;;0.10;;
69795;SDS011;57073;45.650;9.612;2023-04-01T15:40:47;0.53;;;0.10;;
69795;SDS011;57073;45.650;9.612;2023-04-01T16:11:55;2.35;;;0.20;;
69795;SDS011;57073;45.650;9.612;2023-04-01T16:17:16;0.77;;;0.17;;
69795;SDS011;57073;45.650;9.612;2023-04-01T16:22:38;3.73;;;0.17;;
69795;SDS011;57073;45.650;9.612;2023-04-01T16:33:43;0.35;;;0.10;;
69795;SDS011;57073;45.650;9.612;2023-04-01T16:49:32;1.15;;;0.25;;
69795;SDS011;57073;45.650;9.612;2023-04-01T16:59:44;2.63;;;0.20;;
69795;SDS011;57073;45.650;9.612;2023-04-01T17:05:01;0.65;;;0.20;;
69795;SDS011;57073;45.650;9.612;2023-04-01T18:24:44;1.35;;;0.60;;
69795;SDS011;57073;45.650;9.612;2023-04-01T18:30:01;1.33;;;0.70;;
69795;SDS011;57073;45.650;9.612;2023-04-01T18:35:22;2.00;;;0.70;;
69795;SDS011;57073;45.650;9.612;2023-04-01T18:45:33;1.00;;;0.40;;
69795;SDS011;57073;45.650;9.612;2023-04-01T18:55:59;2.15;;;1.00;;
69795;SDS011;57073;45.650;9.612;2023-04-01T19:01:05;1.38;;;0.60;;
69795;SDS011;57073;45.650;9.612;2023-04-01T19:06:17;1.47;;;0.70;;
69795;SDS011;57073;45.650;9.612;2023-04-01T19:27:34;2.22;;;1.42;;
69795;SDS011;57073;45.650;9.612;2023-04-01T19:37:56;4.97;;;1.33;;
69795;SDS011;57073;45.650;9.612;2023-04-01T20:04:45;2.38;;;1.15;;
69795;SDS011;57073;45.650;9.612;2023-04-01T20:10:09;4.00;;;1.30;;
69795;SDS011;57073;45.650;9.612;2023-04-01T20:20:21;2.30;;;1.27;;
69795;SDS011;57073;45.650;9.612;2023-04-01T20:25:37;2.23;;;1.00;;
69795;SDS011;57073;45.650;9.612;2023-04-01T20:52:39;3.08;;;1.70;;
69795;SDS011;57073;45.650;9.612;2023-04-01T21:08:38;3.33;;;1.10;;
69795;SDS011;57073;45.650;9.612;2023-04-01T21:13:50;2.37;;;1.30;;
69795;SDS011;57073;45.650;9.612;2023-04-01T21:19:23;4.87;;;1.70;;
69795;SDS011;57073;45.650;9.612;2023-04-01T21:24:39;3.90;;;1.60;;
69795;SDS011;57073;45.650;9.612;2023-04-01T22:19:06;3.53;;;0.93;;
69795;SDS011;57073;45.650;9.612;2023-04-01T22:55:32;3.40;;;1.10;;
69795;SDS011;57073;45.650;9.612;2023-04-01T23:05:53;2.53;;;0.75;;
69795;SDS011;57073;45.650;9.612;2023-04-01T23:10:56;1.83;;;0.90;;
69795;SDS011;57073;45.650;9.612;2023-04-01T23:16:00;2.03;;;1.00;;
69795;SDS011;57073;45.650;9.612;2023-04-01T23:21:48;2.25;;;0.77;;
69795;SDS011;57073;45.650;9.612;2023-04-01T23:31:48;1.20;;;0.80;;
69795;SDS011;57073;45.650;9.612;2023-04-01T23:37:08;1.83;;;0.82;;
69795;SDS011;57073;45.650;9.612;2023-04-01T23:42:28;1.63;;;0.77;;
69795;SDS011;57073;45.650;9.612;2023-04-01T23:47:33;1.80;;;0.73;;
69795;SDS011;57073;45.650;9.612;2023-04-01T23:52:40;1.30;;;0.60;;
69795;SDS011;57073;45.650;9.612;2023-04-01T23:57:43;1.90;;;0.73;;
